Terminal Aerodrome Forecast
Issued by NWS Chicago, IL

Home | Current Version | Previous Version | Text Only | Print | Product List | Glossary On
Versions: 1 2 3 4 5 6 7 8 9 10 11 12 13 14 15 16 17 18 19 20 21 22 23 24 25 26 27 28 29 30 31 32 33 34 35
000
FTUS43 KLOT 261100
TAFRFD
TAF
KRFD 261140Z 2612/2712 12003KT 4SM BR SCT012 SCT200
      TEMPO 2612/2614 2SM BR BKN012
     FM261400 11007KT P6SM SCT015 BKN200
     FM262100 07006KT P6SM OVC120
     FM270200 01005KT P6SM SCT050 BKN080
     FM270700 31008KT P6SM VCSH BKN025 OVC040=

USA.gov is the U.S. government's official web portal to all federal, state and local government web resources and services.